Time;durP1;ratioP1;P1;durP2;ratioP2;P2;SDS_P1;SDS_P2;PMS_P1;PMS_P2;Temp;Humidity;BMP_temperature;BMP_pressure;BME280_temperature;BME280_humidity;BME280_pressure;Samples;Min_cycle;Max_cycle;Signal;HPM_P1;HPM_P2
2021/09/04 04:38:44;;;;;;;10.57;5.50;;;15.70;98.30;;;;;;4054329;29;21344;-82
2021/09/04 04:40:50;;;;;;;7.20;5.40;;;15.60;98.30;;;;;;4068161;29;20499;-82
2021/09/04 04:42:54;;;;;;;9.10;5.40;;;15.60;98.30;;;;;;4066685;29;20486;-81
2021/09/04 04:44:57;;;;;;;9.27;5.83;;;15.50;98.30;;;;;;4062983;29;20495;-82
2021/09/04 04:47:00;;;;;;;9.73;5.23;;;15.50;98.30;;;;;;4067387;29;20505;-82
2021/09/04 04:49:02;;;;;;;8.47;5.60;;;15.50;98.30;;;;;;4068901;29;20494;-82
2021/09/04 04:51:06;;;;;;;10.27;7.47;;;15.60;98.30;;;;;;4060228;29;20484;-82
2021/09/04 04:53:09;;;;;;;17.23;12.53;;;15.70;98.30;;;;;;4067584;29;20554;-82
2021/09/04 04:55:14;;;;;;;19.70;13.80;;;15.90;98.30;;;;;;4061602;29;20917;-82
2021/09/04 04:57:16;;;;;;;25.10;17.40;;;16.00;98.30;;;;;;4064289;29;21107;-82
2021/09/04 04:59:19;;;;;;;15.63;10.90;;;16.10;98.30;;;;;;4064855;29;20558;-82
2021/09/04 05:01:22;;;;;;;13.77;10.17;;;16.10;98.30;;;;;;4071077;29;20582;-82
2021/09/04 05:03:26;;;;;;;19.90;12.13;;;16.20;98.30;;;;;;4067940;29;20470;-82
2021/09/04 05:05:29;;;;;;;17.57;11.80;;;16.20;98.30;;;;;;4067364;29;20546;-82
2021/09/04 05:07:32;;;;;;;19.37;10.27;;;16.10;98.30;;;;;;4070581;29;20577;-82
2021/09/04 05:09:35;;;;;;;15.60;10.60;;;16.10;98.30;;;;;;4076367;29;20483;-82
2021/09/04 05:11:39;;;;;;;14.57;9.80;;;16.10;98.30;;;;;;4076350;29;20482;-82
2021/09/04 05:13:42;;;;;;;15.07;8.60;;;16.10;98.30;;;;;;4076069;29;20493;-82
2021/09/04 05:15:45;;;;;;;11.83;8.30;;;16.20;98.30;;;;;;4069635;29;20472;-82
2021/09/04 05:17:48;;;;;;;13.73;9.10;;;16.20;98.30;;;;;;4070793;29;20522;-82
2021/09/04 05:19:51;;;;;;;12.30;8.50;;;16.20;98.30;;;;;;4072274;29;20826;-82
2021/09/04 05:21:54;;;;;;;14.10;9.20;;;16.30;98.30;;;;;;4068536;29;20487;-82
2021/09/04 05:23:57;;;;;;;11.40;8.10;;;16.30;98.30;;;;;;4069732;29;20951;-82
2021/09/04 05:26:00;;;;;;;12.00;7.37;;;16.20;98.30;;;;;;4069987;29;20505;-82
2021/09/04 05:28:05;;;;;;;12.47;7.40;;;16.20;98.30;;;;;;4068309;29;20505;-82
2021/09/04 05:30:08;;;;;;;16.17;7.90;;;16.30;98.30;;;;;;4067659;29;20478;-82
2021/09/04 05:32:11;;;;;;;24.93;17.53;;;16.30;98.30;;;;;;4066140;29;20610;-82
2021/09/04 05:34:14;;;;;;;40.90;23.97;;;16.40;98.30;;;;;;4067830;29;20474;-82
2021/09/04 05:36:17;;;;;;;35.63;23.20;;;16.40;98.30;;;;;;4068221;29;20467;-82
2021/09/04 05:38:20;;;;;;;24.70;16.47;;;16.40;98.30;;;;;;4067164;29;20487;-81
2021/09/04 05:40:23;;;;;;;16.83;9.73;;;16.40;98.30;;;;;;4071194;29;20491;-82
2021/09/04 05:42:26;;;;;;;19.00;11.60;;;16.50;98.30;;;;;;4071822;29;20475;-82
2021/09/04 05:44:31;;;;;;;17.80;12.00;;;16.50;98.30;;;;;;4070106;29;20939;-82
2021/09/04 05:46:34;;;;;;;46.73;27.57;;;16.50;98.30;;;;;;4069259;29;20486;-82
2021/09/04 05:48:37;;;;;;;35.97;24.20;;;16.50;98.30;;;;;;4070274;29;20554;-82
2021/09/04 05:50:39;;;;;;;31.73;18.10;;;16.50;98.30;;;;;;4071752;29;20481;-82
2021/09/04 05:52:42;;;;;;;21.37;14.63;;;16.50;98.30;;;;;;4069842;29;20908;-81
2021/09/04 05:54:45;;;;;;;20.70;13.33;;;16.50;98.30;;;;;;4067631;29;20479;-82
2021/09/04 05:56:48;;;;;;;23.00;13.87;;;16.50;98.30;;;;;;4069015;29;20476;-82
2021/09/04 05:58:51;;;;;;;18.13;11.83;;;16.50;98.30;;;;;;4072597;29;21030;-82
2021/09/04 06:00:56;;;;;;;14.83;11.13;;;16.50;98.30;;;;;;4069990;29;20483;-82
2021/09/04 06:02:59;;;;;;;41.67;24.03;;;16.50;98.30;;;;;;4066042;29;20479;-82
2021/09/04 06:05:02;;;;;;;39.57;27.90;;;16.50;98.30;;;;;;4066129;29;20491;-82
2021/09/04 06:07:06;;;;;;;69.57;42.20;;;16.50;98.30;;;;;;4072804;29;20495;-82
2021/09/04 06:09:09;;;;;;;25.50;16.63;;;16.70;98.30;;;;;;4072354;29;20558;-82
2021/09/04 06:11:12;;;;;;;23.70;14.70;;;16.70;98.30;;;;;;4075447;29;20562;-82
2021/09/04 06:13:14;;;;;;;37.67;22.30;;;16.70;98.30;;;;;;4079569;29;20535;-82
2021/09/04 06:15:18;;;;;;;25.40;13.73;;;16.80;98.30;;;;;;4076526;29;20476;-82
2021/09/04 06:17:22;;;;;;;23.23;12.60;;;16.80;98.30;;;;;;4076866;29;20502;-82
2021/09/04 06:19:25;;;;;;;22.60;14.03;;;16.70;98.30;;;;;;4074050;29;20485;-82
2021/09/04 06:21:28;;;;;;;15.87;10.83;;;16.80;98.30;;;;;;4080880;29;20531;-82
2021/09/04 06:23:31;;;;;;;18.67;12.20;;;16.80;98.30;;;;;;4080572;29;20471;-81
2021/09/04 06:25:34;;;;;;;16.90;10.67;;;16.80;98.30;;;;;;4078756;29;20610;-82
2021/09/04 06:27:38;;;;;;;14.60;9.50;;;16.90;98.30;;;;;;4073546;29;20483;-82
2021/09/04 06:29:40;;;;;;;14.90;8.93;;;16.90;98.30;;;;;;4072107;29;20886;-82
2021/09/04 06:31:44;;;;;;;14.43;9.20;;;17.00;98.30;;;;;;4071163;29;20478;-82
2021/09/04 06:33:48;;;;;;;14.80;9.03;;;17.00;98.30;;;;;;4070582;29;20475;-82
2021/09/04 06:35:51;;;;;;;13.90;8.47;;;17.00;98.30;;;;;;4070973;29;20483;-82
2021/09/04 06:37:54;;;;;;;14.93;8.63;;;17.00;98.30;;;;;;4070398;29;20526;-82
2021/09/04 06:39:57;;;;;;;11.37;8.10;;;17.00;98.30;;;;;;4068156;29;20471;-82
2021/09/04 06:42:03;;;;;;;11.63;7.90;;;17.00;98.30;;;;;;4070716;29;20503;-82
2021/09/04 06:44:06;;;;;;;11.67;7.37;;;17.10;98.30;;;;;;4069286;29;20554;-82
2021/09/04 06:46:09;;;;;;;12.30;7.77;;;17.10;98.30;;;;;;4067655;29;20483;-82
2021/09/04 06:48:12;;;;;;;12.60;7.43;;;17.10;98.30;;;;;;4070419;29;20497;-82
2021/09/04 06:50:17;;;;;;;11.17;7.20;;;17.10;98.30;;;;;;4070499;29;20628;-82
2021/09/04 06:52:20;;;;;;;10.37;7.67;;;17.00;98.30;;;;;;4071883;29;20495;-82
2021/09/04 06:54:24;;;;;;;11.90;6.87;;;17.00;98.30;;;;;;4071408;29;20475;-82
2021/09/04 06:56:27;;;;;;;8.83;7.10;;;17.00;98.30;;;;;;4071117;29;20471;-82
2021/09/04 06:58:30;;;;;;;12.00;7.00;;;17.10;98.30;;;;;;4072836;29;20518;-82
2021/09/04 07:00:33;;;;;;;9.70;7.57;;;17.10;98.30;;;;;;4067805;29;20513;-82
2021/09/04 07:02:37;;;;;;;14.93;7.27;;;17.10;98.30;;;;;;4070044;29;20504;-82
2021/09/04 07:04:41;;;;;;;12.67;7.10;;;17.20;98.30;;;;;;4065381;29;20472;-82
2021/09/04 07:06:45;;;;;;;11.70;6.97;;;17.20;98.30;;;;;;4069671;29;20590;-81
2021/09/04 07:08:48;;;;;;;10.03;8.10;;;17.30;98.30;;;;;;4065426;29;20471;-82
2021/09/04 07:10:51;;;;;;;9.47;6.80;;;17.30;98.30;;;;;;4069828;29;20527;-82
2021/09/04 07:12:54;;;;;;;10.87;6.93;;;17.40;98.30;;;;;;4063767;29;20505;-82
2021/09/04 07:14:57;;;;;;;8.90;7.53;;;17.40;98.30;;;;;;4066225;29;20973;-82
2021/09/04 07:17:00;;;;;;;10.30;7.00;;;17.50;98.30;;;;;;4065246;29;20487;-82
2021/09/04 07:19:03;;;;;;;13.30;8.27;;;17.60;98.30;;;;;;4070779;29;20546;-82
2021/09/04 07:21:06;;;;;;;12.70;8.30;;;17.60;98.30;;;;;;4064805;29;20474;-82
2021/09/04 07:23:10;;;;;;;17.70;8.40;;;17.60;98.30;;;;;;4060915;29;20563;-82
2021/09/04 07:25:13;;;;;;;13.43;7.70;;;17.60;98.30;;;;;;4060729;29;20472;-82
2021/09/04 07:27:16;;;;;;;11.83;7.83;;;17.60;98.30;;;;;;4067990;29;20522;-82
2021/09/04 07:29:19;;;;;;;10.33;7.40;;;17.60;98.30;;;;;;4069092;29;20547;-82
2021/09/04 07:31:22;;;;;;;9.80;7.57;;;17.60;98.30;;;;;;4066904;29;20494;-82
2021/09/04 07:33:25;;;;;;;11.50;7.80;;;17.60;98.30;;;;;;4068931;29;20482;-82
2021/09/04 07:35:28;;;;;;;11.60;7.43;;;17.70;98.30;;;;;;4068560;29;20479;-82
2021/09/04 07:37:35;;;;;;;14.47;7.43;;;17.70;98.30;;;;;;4070071;29;20491;-82
2021/09/04 07:39:40;;;;;;;11.90;8.13;;;17.80;98.30;;;;;;4065419;29;20467;-83
2021/09/04 07:41:43;;;;;;;12.00;7.73;;;17.80;98.30;;;;;;4068576;29;20495;-83
2021/09/04 07:43:46;;;;;;;12.80;7.80;;;18.00;98.30;;;;;;4064040;29;20471;-83
2021/09/04 07:45:49;;;;;;;13.50;8.10;;;18.10;98.30;;;;;;4062403;29;20587;-84
2021/09/04 07:47:52;;;;;;;15.80;11.63;;;18.20;98.30;;;;;;4051759;29;20992;-83
2021/09/04 07:49:57;;;;;;;35.60;21.83;;;18.40;98.30;;;;;;4062973;29;20478;-84
2021/09/04 07:52:08;;;;;;;38.77;27.43;;;18.40;98.30;;;;;;4065811;29;20971;-83
2021/09/04 07:54:29;;;;;;;16.20;10.37;;;18.60;98.30;;;;;;4066808;29;20486;-83
2021/09/04 07:56:34;;;;;;;14.80;9.10;;;18.90;98.30;;;;;;4065892;29;20487;-83
2021/09/04 07:58:37;;;;;;;17.97;9.40;;;18.90;98.30;;;;;;4051937;29;20491;-83
2021/09/04 08:00:42;;;;;;;12.33;7.43;;;18.80;98.30;;;;;;4058917;29;21012;-83
2021/09/04 08:02:52;;;;;;;11.63;7.97;;;18.80;98.30;;;;;;4065653;29;20966;-83
2021/09/04 08:04:55;;;;;;;13.80;9.67;;;18.80;98.30;;;;;;4064783;29;20502;-82
2021/09/04 08:06:58;;;;;;;14.23;9.03;;;19.00;98.30;;;;;;4065873;29;21328;-83
2021/09/04 08:09:01;;;;;;;15.70;8.40;;;19.10;98.30;;;;;;4067521;29;20830;-83
2021/09/04 08:11:04;;;;;;;27.30;20.40;;;19.20;98.30;;;;;;4068507;29;20475;-83
2021/09/04 08:13:11;;;;;;;77.17;49.30;;;19.30;98.30;;;;;;4065571;29;20558;-82
2021/09/04 08:15:14;;;;;;;35.53;25.13;;;19.50;98.30;;;;;;4064006;29;20965;-82
2021/09/04 08:17:17;;;;;;;22.13;15.40;;;19.70;98.30;;;;;;4061025;29;20854;-83
2021/09/04 08:19:20;;;;;;;14.47;10.30;;;19.80;98.30;;;;;;4064608;29;20479;-83
2021/09/04 08:21:23;;;;;;;11.20;9.20;;;19.90;98.30;;;;;;4067244;29;20581;-83
2021/09/04 08:23:26;;;;;;;14.40;9.67;;;19.80;98.30;;;;;;4066107;29;20590;-82
2021/09/04 08:25:29;;;;;;;15.37;8.50;;;19.50;98.30;;;;;;4065208;29;20471;-83
2021/09/04 08:27:32;;;;;;;12.63;8.00;;;19.40;98.30;;;;;;4066967;29;21315;-82
2021/09/04 08:29:36;;;;;;;9.73;7.67;;;19.50;98.30;;;;;;4056817;29;20540;-82
2021/09/04 08:31:40;;;;;;;15.57;9.20;;;19.60;98.30;;;;;;4066812;29;20479;-82
2021/09/04 08:33:43;;;;;;;13.70;8.00;;;19.70;98.30;;;;;;4067667;29;20463;-82
2021/09/04 08:35:52;;;;;;;11.77;7.50;;;19.80;98.30;;;;;;4069523;29;20474;-83
2021/09/04 08:37:55;;;;;;;9.90;7.90;;;19.80;98.30;;;;;;4068283;29;20493;-83
2021/09/04 08:39:59;;;;;;;15.87;11.00;;;19.80;98.30;;;;;;4071072;29;20501;-83
2021/09/04 08:42:03;;;;;;;22.80;17.07;;;19.80;98.30;;;;;;4071960;29;20473;-82
2021/09/04 08:44:07;;;;;;;41.30;28.63;;;19.80;98.30;;;;;;4065921;29;20475;-82
2021/09/04 08:46:14;;;;;;;18.03;10.60;;;19.70;98.30;;;;;;4068894;29;21030;-83
2021/09/04 08:48:21;;;;;;;10.37;8.60;;;19.70;98.30;;;;;;4068148;29;20533;-82
2021/09/04 08:50:26;;;;;;;10.33;7.50;;;19.80;98.30;;;;;;4069055;29;20489;-82
2021/09/04 08:52:29;;;;;;;17.20;10.07;;;19.60;98.30;;;;;;4068617;29;20514;-82
2021/09/04 08:54:35;;;;;;;15.97;9.80;;;19.60;98.30;;;;;;4068630;29;20501;-83
2021/09/04 08:56:41;;;;;;;11.50;7.40;;;19.70;98.30;;;;;;4068067;29;20530;-83
2021/09/04 09:01:27;;;;;;;15.40;8.07;;;19.70;98.30;;;;;;4069110;29;20904;-82
2021/09/04 09:03:33;;;;;;;10.23;7.23;;;19.70;98.30;;;;;;4067734;29;20467;-82
2021/09/04 09:05:41;;;;;;;10.23;6.80;;;19.70;98.30;;;;;;4068761;29;21026;-83
2021/09/04 09:07:48;;;;;;;12.50;7.63;;;19.80;98.30;;;;;;4069982;29;20509;-83
2021/09/04 09:09:52;;;;;;;11.03;7.57;;;19.80;98.30;;;;;;4067866;29;20473;-82
2021/09/04 09:11:59;;;;;;;8.73;6.73;;;19.70;98.30;;;;;;4070749;29;20506;-82
2021/09/04 09:14:05;;;;;;;10.00;7.20;;;19.90;98.30;;;;;;4068768;29;20482;-82
2021/09/04 09:16:14;;;;;;;12.30;7.87;;;20.10;98.30;;;;;;4070274;29;20469;-82
2021/09/04 09:18:19;;;;;;;9.53;8.00;;;20.50;98.30;;;;;;4063977;29;20503;-82
2021/09/04 09:20:25;;;;;;;11.03;6.90;;;20.80;98.30;;;;;;4069164;29;20521;-82
2021/09/04 09:22:28;;;;;;;14.70;7.80;;;20.80;98.30;;;;;;4068530;29;20506;-83
2021/09/04 09:24:31;;;;;;;9.47;6.87;;;20.80;98.30;;;;;;4066912;29;20479;-82
2021/09/04 09:26:37;;;;;;;10.17;7.33;;;20.80;98.30;;;;;;4067269;29;20493;-83
2021/09/04 09:28:40;;;;;;;8.70;6.90;;;20.70;98.30;;;;;;4069102;29;21041;-83
2021/09/04 09:30:44;;;;;;;11.07;7.60;;;20.70;98.30;;;;;;4069603;29;20562;-83
2021/09/04 09:32:54;;;;;;;11.07;9.07;;;20.50;98.30;;;;;;4069000;29;20566;-82
2021/09/04 09:34:59;;;;;;;12.50;7.40;;;20.50;98.30;;;;;;4069054;29;21017;-82
2021/09/04 09:37:03;;;;;;;10.00;7.67;;;20.50;98.30;;;;;;4068645;29;20919;-82
2021/09/04 09:39:11;;;;;;;18.40;12.93;;;20.30;98.30;;;;;;4067739;29;20485;-83
2021/09/04 09:41:16;;;;;;;10.30;8.20;;;20.20;98.30;;;;;;4067522;29;20644;-82
2021/09/04 09:43:22;;;;;;;15.50;7.93;;;20.00;98.30;;;;;;4070321;29;20570;-82
2021/09/04 09:45:40;;;;;;;14.07;7.53;;;20.00;98.30;;;;;;4066526;29;20506;-82
2021/09/04 09:47:51;;;;;;;15.70;9.47;;;20.00;98.30;;;;;;4070231;29;20986;-82
2021/09/04 09:49:54;;;;;;;14.47;8.50;;;20.10;98.30;;;;;;4072129;29;20497;-82
2021/09/04 09:52:01;;;;;;;8.20;6.57;;;20.20;98.30;;;;;;4069426;29;20471;-82
2021/09/04 09:54:04;;;;;;;11.40;7.80;;;20.30;98.30;;;;;;4067948;29;20478;-83
2021/09/04 09:56:09;;;;;;;10.77;7.53;;;20.20;98.30;;;;;;4068643;29;20475;-83
2021/09/04 09:58:12;;;;;;;13.47;8.70;;;20.20;98.30;;;;;;4071557;29;20533;-83
2021/09/04 10:00:17;;;;;;;16.93;9.17;;;20.30;98.30;;;;;;4070672;29;20477;-82
2021/09/04 10:02:20;;;;;;;17.63;8.43;;;20.20;98.30;;;;;;4067550;29;20851;-82
2021/09/04 10:04:27;;;;;;;11.37;7.20;;;20.00;98.30;;;;;;4066781;29;20471;-83
2021/09/04 10:06:31;;;;;;;10.93;7.63;;;19.90;98.30;;;;;;4067979;29;20471;-82
2021/09/04 10:08:38;;;;;;;8.77;6.97;;;19.80;98.30;;;;;;4068814;29;20530;-82
2021/09/04 10:10:42;;;;;;;7.20;5.90;;;19.80;98.30;;;;;;4068729;29;20538;-83
2021/09/04 10:12:45;;;;;;;10.87;7.13;;;19.80;98.30;;;;;;4066399;29;20891;-82
2021/09/04 10:14:50;;;;;;;9.90;7.33;;;19.80;98.30;;;;;;4065414;29;20467;-82
2021/09/04 10:16:57;;;;;;;10.00;7.37;;;19.90;98.30;;;;;;4070026;29;20486;-82
2021/09/04 10:19:01;;;;;;;11.60;7.10;;;20.20;98.30;;;;;;4068957;29;20466;-82
2021/09/04 10:21:08;;;;;;;12.10;7.00;;;20.50;98.30;;;;;;4071637;29;21122;-83
2021/09/04 10:23:20;;;;;;;8.87;6.00;;;20.80;98.30;;;;;;4071313;29;20480;-83
2021/09/04 10:25:27;;;;;;;8.93;6.10;;;21.00;98.00;;;;;;4069578;29;20469;-83
2021/09/04 10:27:33;;;;;;;9.10;6.67;;;21.00;96.70;;;;;;4069871;29;20499;-83
2021/09/04 10:29:41;;;;;;;11.13;6.73;;;21.10;96.20;;;;;;4076877;29;20530;-83
2021/09/04 10:31:57;;;;;;;9.80;6.10;;;21.30;96.60;;;;;;4095291;23;20509;-83
2021/09/04 10:36:30;;;;;;;7.03;5.60;;;21.50;95.40;;;;;;4089389;29;20465;-85
2021/09/04 10:41:49;;;;;;;7.80;5.93;;;21.50;95.40;;;;;;4087610;29;20543;-84
2021/09/04 10:43:57;;;;;;;8.53;6.30;;;21.90;95.40;;;;;;4090206;28;20501;-84
2021/09/04 10:46:01;;;;;;;11.93;6.40;;;22.20;94.50;;;;;;4087373;29;20474;-85
2021/09/04 10:48:15;;;;;;;13.23;5.27;;;22.20;92.40;;;;;;4085830;29;20482;-83
2021/09/04 10:50:20;;;;;;;7.50;5.67;;;22.30;92.60;;;;;;4086216;29;20837;-83
2021/09/04 10:52:59;;;;;;;7.70;5.43;;;22.70;92.00;;;;;;4094334;28;21116;-84
2021/09/04 10:55:04;;;;;;;6.33;5.73;;;23.20;90.30;;;;;;4090530;29;20473;-84
2021/09/04 10:57:17;;;;;;;5.87;4.80;;;23.60;88.40;;;;;;4092318;28;20473;-84
2021/09/04 10:59:53;;;;;;;7.20;5.00;;;23.70;87.90;;;;;;4084142;29;20470;-84
2021/09/04 11:02:03;;;;;;;6.37;5.10;;;23.90;88.10;;;;;;4091435;28;20504;-85
2021/09/04 11:04:06;;;;;;;7.20;4.87;;;24.60;85.70;;;;;;4082457;29;20474;-84
2021/09/04 11:06:18;;;;;;;6.20;5.00;;;24.80;85.70;;;;;;4093786;28;20497;-85
2021/09/04 11:08:44;;;;;;;7.07;5.10;;;25.20;83.60;;;;;;4093994;28;21060;-84
2021/09/04 11:10:48;;;;;;;6.67;5.20;;;24.40;85.00;;;;;;4099225;29;20557;-86
2021/09/04 11:13:06;;;;;;;8.63;5.60;;;24.10;85.70;;;;;;4097860;29;20465;-83
2021/09/04 11:15:24;;;;;;;7.17;5.10;;;23.70;86.10;;;;;;4103149;28;20500;-84
2021/09/04 11:17:36;;;;;;;8.40;5.67;;;23.30;87.70;;;;;;4103626;29;20494;-84
2021/09/04 11:19:40;;;;;;;7.30;5.90;;;22.40;88.10;;;;;;4102105;29;20567;-85
2021/09/04 11:22:01;;;;;;;6.53;4.90;;;22.10;90.30;;;;;;4103831;29;20482;-85
2021/09/04 11:24:04;;;;;;;6.30;5.27;;;22.30;90.40;;;;;;4103009;29;20457;-84
2021/09/04 11:26:07;;;;;;;7.87;4.97;;;22.50;90.20;;;;;;4101214;29;20469;-83
2021/09/04 11:28:12;;;;;;;5.93;4.80;;;22.70;89.70;;;;;;4101895;29;20855;-83
2021/09/04 11:30:16;;;;;;;6.77;4.43;;;22.80;90.30;;;;;;4101214;29;20487;-85
2021/09/04 11:32:21;;;;;;;7.40;5.50;;;23.00;89.30;;;;;;4100293;28;20498;-85
2021/09/04 11:34:38;;;;;;;7.30;4.90;;;23.10;89.10;;;;;;4103964;28;20467;-85
2021/09/04 11:36:41;;;;;;;7.40;4.90;;;23.10;88.30;;;;;;4101398;29;20476;-86
2021/09/04 11:38:44;;;;;;;10.60;4.63;;;22.40;88.80;;;;;;4105883;29;20504;-84
2021/09/04 11:40:47;;;;;;;6.50;4.90;;;21.70;90.20;;;;;;4099756;29;20474;-84
2021/09/04 11:42:51;;;;;;;7.60;4.20;;;21.60;91.70;;;;;;4101772;29;20473;-84
2021/09/04 11:44:58;;;;;;;7.90;5.17;;;21.70;92.10;;;;;;4102688;29;20502;-85
2021/09/04 11:47:01;;;;;;;5.93;4.90;;;21.90;92.40;;;;;;4103530;29;20469;-84
2021/09/04 11:49:04;;;;;;;9.30;4.93;;;22.10;91.60;;;;;;4105284;29;20461;-83
2021/09/04 11:51:08;;;;;;;8.17;4.97;;;22.50;91.00;;;;;;4102126;28;20501;-85
2021/09/04 11:53:12;;;;;;;9.20;5.47;;;22.60;90.60;;;;;;4103890;29;20500;-84
2021/09/04 11:55:19;;;;;;;7.20;4.43;;;22.80;89.30;;;;;;4101356;29;20482;-84
2021/09/04 11:57:27;;;;;;;7.70;5.20;;;22.90;90.30;;;;;;4107264;29;20460;-83
2021/09/04 11:59:30;;;;;;;6.63;4.60;;;23.20;89.40;;;;;;4103121;29;20492;-84
2021/09/04 12:01:34;;;;;;;7.67;5.50;;;23.10;88.60;;;;;;4101396;28;20494;-84
2021/09/04 12:03:38;;;;;;;8.10;5.80;;;23.20;87.70;;;;;;4101340;29;20509;-84
2021/09/04 12:05:44;;;;;;;6.67;5.50;;;23.30;88.40;;;;;;4102678;29;20514;-84
2021/09/04 12:07:47;;;;;;;6.63;4.70;;;23.90;87.10;;;;;;4101950;28;20466;-84
2021/09/04 12:09:50;;;;;;;7.27;5.07;;;24.00;86.60;;;;;;4099655;29;20470;-84
2021/09/04 12:11:53;;;;;;;5.20;4.53;;;24.40;85.90;;;;;;4099237;29;20488;-84
2021/09/04 12:13:56;;;;;;;5.80;4.33;;;25.40;84.00;;;;;;4101253;29;20473;-85
2021/09/04 12:16:01;;;;;;;6.93;4.70;;;25.80;82.50;;;;;;4100718;29;20481;-85
2021/09/04 12:18:07;;;;;;;6.43;5.60;;;25.90;82.30;;;;;;4103289;29;20853;-85
2021/09/04 12:20:11;;;;;;;7.07;5.77;;;26.90;81.50;;;;;;4103093;29;20465;-85
2021/09/04 12:22:14;;;;;;;6.00;5.20;;;27.50;78.10;;;;;;4103572;28;21070;-85
2021/09/04 12:24:17;;;;;;;7.37;4.90;;;26.90;78.90;;;;;;4096549;29;20461;-85
2021/09/04 12:26:20;;;;;;;8.10;6.03;;;26.90;79.30;;;;;;4101462;29;20459;-84
2021/09/04 12:28:25;;;;;;;5.60;4.80;;;26.40;80.40;;;;;;4103781;29;20829;-84
2021/09/04 12:30:28;;;;;;;8.60;6.50;;;27.00;80.30;;;;;;4102407;29;20461;-84
2021/09/04 12:32:34;;;;;;;6.83;5.53;;;27.10;80.90;;;;;;4100510;29;20488;-84
2021/09/04 12:34:39;;;;;;;9.30;7.40;;;27.00;81.30;;;;;;4095628;29;20479;-85
2021/09/04 12:36:42;;;;;;;8.37;7.40;;;26.60;81.50;;;;;;4102818;28;21004;-84
2021/09/04 12:38:46;;;;;;;9.10;6.70;;;26.00;82.80;;;;;;4103691;28;20561;-86
2021/09/04 12:41:05;;;;;;;7.80;6.70;;;25.60;83.60;;;;;;4101453;29;20565;-84
2021/09/04 12:43:08;;;;;;;7.50;5.80;;;25.00;84.20;;;;;;4100969;29;20477;-85
2021/09/04 12:45:16;;;;;;;7.37;5.83;;;24.70;84.50;;;;;;4097847;29;20446;-86
2021/09/04 12:47:19;;;;;;;8.10;5.43;;;24.50;84.80;;;;;;4101797;29;20496;-85
2021/09/04 12:49:31;;;;;;;7.00;5.13;;;24.30;86.30;;;;;;4101040;29;20469;-85
2021/09/04 12:51:36;;;;;;;11.40;6.00;;;23.90;84.70;;;;;;4099842;29;20548;-85
2021/09/04 12:53:39;;;;;;;9.70;7.00;;;23.80;86.80;;;;;;4102870;29;20460;-84
2021/09/04 12:55:54;;;;;;;6.27;4.50;;;24.90;85.40;;;;;;4103333;28;20478;-84
2021/09/04 12:58:05;;;;;;;6.53;4.80;;;26.00;81.20;;;;;;4097653;29;20489;-85
2021/09/04 13:00:10;;;;;;;6.90;4.97;;;26.10;81.60;;;;;;4101055;29;20492;-86
2021/09/04 13:02:14;;;;;;;7.03;5.07;;;27.10;79.10;;;;;;4100037;28;20485;-86
2021/09/04 13:04:20;;;;;;;6.60;5.47;;;27.70;78.50;;;;;;4098895;29;20533;-85
2021/09/04 13:06:23;;;;;;;5.30;4.77;;;28.30;75.60;;;;;;4100875;29;20930;-86
2021/09/04 13:08:27;;;;;;;6.77;5.50;;;28.00;75.80;;;;;;4099489;29;20949;-87
2021/09/04 13:10:32;;;;;;;7.67;6.27;;;28.50;75.20;;;;;;4100998;28;20472;-86
2021/09/04 13:12:35;;;;;;;6.45;4.75;;;29.50;74.00;;;;;;4099794;29;20473;-86
2021/09/04 13:14:38;;;;;;;8.50;4.97;;;28.80;73.40;;;;;;4097773;29;20460;-85
2021/09/04 13:16:41;;;;;;;6.80;4.78;;;29.30;72.40;;;;;;4100759;29;20473;-85
2021/09/04 13:18:44;;;;;;;5.55;4.95;;;29.20;73.30;;;;;;4099461;28;20478;-87
2021/09/04 13:20:47;;;;;;;6.95;5.28;;;29.20;72.80;;;;;;4101507;28;20480;-87
2021/09/04 13:22:50;;;;;;;7.00;4.95;;;28.80;73.60;;;;;;4103326;29;20469;-86
2021/09/04 13:24:54;;;;;;;7.15;5.35;;;28.00;74.10;;;;;;4099853;29;20461;-86
2021/09/04 13:26:57;;;;;;;8.40;6.20;;;26.90;76.70;;;;;;4104373;29;20553;-85
2021/09/04 13:29:00;;;;;;;6.60;5.37;;;27.50;76.90;;;;;;4103308;29;20485;-85
2021/09/04 13:31:03;;;;;;;7.05;4.93;;;28.40;76.10;;;;;;4101272;28;21097;-85
2021/09/04 13:33:06;;;;;;;5.55;4.95;;;29.10;74.90;;;;;;4102264;29;20475;-86
2021/09/04 13:35:10;;;;;;;5.88;4.93;;;30.00;73.40;;;;;;4099115;29;20520;-86
2021/09/04 13:37:13;;;;;;;6.93;5.20;;;30.40;71.90;;;;;;4102170;28;20956;-86
2021/09/04 13:39:16;;;;;;;7.85;5.50;;;30.40;71.10;;;;;;4101168;29;20502;-86
2021/09/04 13:41:20;;;;;;;6.78;4.97;;;30.40;71.20;;;;;;4101798;28;20485;-85
2021/09/04 13:43:23;;;;;;;6.57;5.75;;;30.90;70.70;;;;;;4100415;29;20496;-85
2021/09/04 13:45:26;;;;;;;6.85;5.75;;;30.50;70.80;;;;;;4103115;29;20472;-86
2021/09/04 13:47:29;;;;;;;6.32;5.70;;;30.00;70.90;;;;;;4103729;29;20465;-86
2021/09/04 13:49:32;;;;;;;7.07;4.82;;;29.20;73.40;;;;;;4102449;29;20664;-86
2021/09/04 13:51:35;;;;;;;7.43;5.72;;;29.30;74.30;;;;;;4101999;28;20988;-86
2021/09/04 13:53:38;;;;;;;6.57;5.13;;;29.50;73.20;;;;;;4099363;28;20560;-85
2021/09/04 13:55:41;;;;;;;9.05;7.25;;;29.30;72.50;;;;;;4099874;28;20990;-85
2021/09/04 13:57:46;;;;;;;8.45;5.50;;;29.90;71.40;;;;;;4100185;29;20504;-85
2021/09/04 13:59:49;;;;;;;8.25;5.68;;;29.60;72.50;;;;;;4098562;29;20685;-87
2021/09/04 14:01:52;;;;;;;6.82;5.70;;;29.50;71.60;;;;;;4101915;28;20488;-86
2021/09/04 14:03:55;;;;;;;9.20;6.05;;;29.10;72.20;;;;;;4099668;29;20497;-87
2021/09/04 14:05:58;;;;;;;6.30;5.63;;;28.40;73.60;;;;;;4100090;28;20466;-85
2021/09/04 14:08:01;;;;;;;5.80;5.30;;;27.50;75.10;;;;;;4102628;29;20468;-86
2021/09/04 14:10:05;;;;;;;7.17;5.10;;;26.40;77.80;;;;;;4100487;28;20481;-87
2021/09/04 14:12:08;;;;;;;7.43;5.40;;;27.10;78.30;;;;;;4101510;29;20489;-85
2021/09/04 14:14:13;;;;;;;7.63;5.60;;;27.80;75.80;;;;;;4102598;29;20472;-85
2021/09/04 14:16:16;;;;;;;7.33;5.57;;;27.90;76.00;;;;;;4101297;29;20481;-85
2021/09/04 14:18:19;;;;;;;6.90;5.50;;;27.60;76.50;;;;;;4100556;29;20555;-86
2021/09/04 14:20:22;;;;;;;7.87;5.00;;;27.20;77.50;;;;;;4101983;29;20493;-85
2021/09/04 14:22:25;;;;;;;6.20;5.40;;;27.80;76.10;;;;;;4103547;28;20511;-86
2021/09/04 14:24:27;;;;;;;6.75;5.35;;;28.40;74.60;;;;;;4104918;28;20500;-86
2021/09/04 14:26:31;;;;;;;6.55;5.22;;;29.30;73.00;;;;;;4102041;29;20476;-88
2021/09/04 14:28:34;;;;;;;8.10;5.30;;;29.90;71.40;;;;;;4095004;29;20561;-86
2021/09/04 14:30:38;;;;;;;6.57;5.25;;;30.40;71.70;;;;;;4102382;29;20471;-86
2021/09/04 14:32:41;;;;;;;7.00;5.45;;;31.10;71.40;;;;;;4101077;28;20465;-87
2021/09/04 14:34:44;;;;;;;9.35;6.63;;;31.30;70.90;;;;;;4103102;29;20477;-86
2021/09/04 14:36:47;;;;;;;8.30;6.32;;;31.70;70.10;;;;;;4103378;29;20208;-88
2021/09/04 14:38:50;;;;;;;6.78;5.57;;;31.70;69.80;;;;;;4105454;28;20280;-86
2021/09/04 14:40:53;;;;;;;7.72;5.60;;;31.30;70.40;;;;;;4102700;28;20589;-86
2021/09/04 14:42:56;;;;;;;11.05;7.75;;;30.20;70.80;;;;;;4101821;29;20210;-87
2021/09/04 14:44:59;;;;;;;8.45;6.63;;;28.90;72.50;;;;;;4101455;29;20318;-86
2021/09/04 14:47:04;;;;;;;8.40;6.97;;;28.00;74.40;;;;;;4105032;28;20484;-86
2021/09/04 14:49:07;;;;;;;7.97;7.10;;;27.00;75.80;;;;;;4104417;29;20470;-85
2021/09/04 14:51:10;;;;;;;8.50;6.50;;;26.70;76.70;;;;;;4101830;28;20481;-85
2021/09/04 14:53:13;;;;;;;10.10;6.50;;;26.30;78.80;;;;;;4099971;29;20538;-85
2021/09/04 14:55:16;;;;;;;9.97;6.73;;;25.50;79.60;;;;;;4102587;29;20472;-87
2021/09/04 14:57:19;;;;;;;7.87;5.83;;;25.20;80.80;;;;;;4104488;28;20890;-86
2021/09/04 14:59:25;;;;;;;10.70;6.70;;;24.30;82.10;;;;;;4106443;29;20462;-87
2021/09/04 15:01:28;;;;;;;24.23;19.70;;;24.00;83.40;;;;;;4105167;28;20564;-86
2021/09/04 15:03:33;;;;;;;18.50;16.43;;;24.20;83.40;;;;;;4105360;29;20480;-87
2021/09/04 15:05:36;;;;;;;51.37;45.70;;;24.20;83.70;;;;;;4106428;29;20461;-86
2021/09/04 15:07:39;;;;;;;19.17;14.43;;;24.60;84.60;;;;;;4104764;29;20526;-86
2021/09/04 15:09:42;;;;;;;12.93;11.03;;;25.70;83.60;;;;;;4103428;28;21051;-86
2021/09/04 15:11:46;;;;;;;11.70;10.13;;;26.70;81.40;;;;;;4102933;29;20490;-87
2021/09/04 15:13:50;;;;;;;9.37;6.60;;;27.60;79.70;;;;;;4099445;28;20470;-87
2021/09/04 15:15:53;;;;;;;11.27;8.87;;;28.50;77.20;;;;;;4101567;29;20480;-87
2021/09/04 15:17:56;;;;;;;8.83;6.90;;;29.30;74.70;;;;;;4099815;29;20478;-86
2021/09/04 15:20:00;;;;;;;7.47;6.77;;;29.60;73.40;;;;;;4098515;28;20523;-86
2021/09/04 15:22:04;;;;;;;9.87;6.90;;;28.90;73.00;;;;;;4100460;29;20493;-86
2021/09/04 15:24:07;;;;;;;7.83;6.83;;;28.40;74.30;;;;;;4100489;29;20473;-86
2021/09/04 15:26:11;;;;;;;8.97;6.40;;;27.70;76.50;;;;;;4099745;28;20998;-86
2021/09/04 15:28:14;;;;;;;10.00;6.20;;;27.70;76.50;;;;;;4099742;29;20477;-86
2021/09/04 15:30:17;;;;;;;9.57;6.30;;;28.10;76.50;;;;;;4096735;29;20469;-86